Etusivu
METAR-TAF:

METAR-TAF

Lentoasemat :

Monticello Regional Airport

Monticello, Iowa, Yhdysvallat

Leveyspiiri: 42-14N, Pituuspiiri: 091-10W, korkeus merenpinnasta: 259 m

Tämänhetkinen sää

Tämä raportti tehtiin 19 minuuttia sitten, kello 17.15 UTC
Tuuli 12 kn etelästä
Lämpötila -5°C
Kosteus 63%
Ilmanpaine 1017 hPa
Näkyvyys: 16.1 km
selkeää

METAR: KMXO 131715Z AUTO 18012KT 10SM CLR M05/M11 A3004 RMK AO2

Aika: 11:34 (17:34 UTC)


TAF: puuttuu

Säähavainnot ja -ennusteet yli 4000 lentoasemalta (METAR- ja TAF-raportit).

Käytössä olevat sääasemat on merkitty karttaan keltaisilla ja punaisilla pisteillä.

Aseta hiiri pisteen päälle nähdäksesi sääaseman nimen.

Klikkaa sitten nähdäksesi säähavainnot ja -ennusteet.

Kartan vaihtaminen: klikkaa mustalla rastilla varustettuja vihreitä pisteitä, niin voit zoomata sisään; viivalla varustettua vihreää pistettä, niin voit zoomata ulos tai vihreitä nuolia, niin pääset viereisille kartoille.


METAR-TAF: